Time;durP1;ratioP1;P1;durP2;ratioP2;P2;SDS_P1;SDS_P2;PMS_P1;PMS_P2;Temp;Humidity;BMP_temperature;BMP_pressure;BME280_temperature;BME280_humidity;BME280_pressure;Samples;Min_cycle;Max_cycle;Signal;HPM_P1;HPM_P2
2022/05/07 00:00:30;;;;;;;;;16.00;14.50;;;;;16.28;61.53;99476.63;5063801;27;45546;-66
2022/05/07 00:02:55;;;;;;;;;20.75;17.50;;;;;16.26;62.68;99470.53;5096165;27;45511;-65
2022/05/07 00:05:21;;;;;;;;;21.25;17.50;;;;;16.22;61.82;99469.00;5079491;27;45351;-66
2022/05/07 00:07:47;;;;;;;;;13.00;12.50;;;;;16.20;62.07;99471.75;5079454;27;45468;-66
2022/05/07 00:10:13;;;;;;;;;15.75;15.00;;;;;16.20;61.80;99469.09;5077595;28;45553;-66
2022/05/07 00:12:39;;;;;;;;;16.25;14.75;;;;;16.23;61.85;99470.72;5088627;27;46340;-66
2022/05/07 00:15:05;;;;;;;;;14.00;13.00;;;;;16.25;61.49;99477.69;5098028;27;45341;-66
2022/05/07 00:20:15;;;;;;;;;15.75;15.00;;;;;16.30;61.33;99472.06;5097480;27;45384;-66
2022/05/07 00:22:40;;;;;;;;;13.00;11.25;;;;;16.32;62.22;99471.03;5086259;27;45389;-66
2022/05/07 00:25:08;;;;;;;;;19.75;16.50;;;;;16.31;61.58;99474.66;5097351;27;45237;-66
2022/05/07 00:27:43;;;;;;;;;13.50;13.50;;;;;16.30;61.77;99461.44;5065748;27;45495;-65
2022/05/07 00:30:08;;;;;;;;;20.25;15.00;;;;;16.28;61.45;99465.97;5077434;28;45365;-65
2022/05/07 00:32:43;;;;;;;;;11.50;11.00;;;;;16.25;61.81;99459.06;5080034;27;45473;-65
2022/05/07 00:35:10;;;;;;;;;14.00;13.25;;;;;16.24;62.06;99461.81;5077358;27;45546;-65
2022/05/07 00:37:36;;;;;;;;;15.50;15.25;;;;;16.19;61.99;99463.88;5079330;27;45428;-65
2022/05/07 00:40:02;;;;;;;;;17.75;16.25;;;;;16.15;62.12;99455.19;5091187;27;45516;-65
2022/05/07 00:42:27;;;;;;;;;11.50;10.75;;;;;16.13;61.73;99451.75;5075581;27;47365;-66
2022/05/07 00:44:53;;;;;;;;;14.25;13.50;;;;;16.15;61.89;99449.88;5063908;28;45412;-66
2022/05/07 00:47:24;;;;;;;;;17.50;16.25;;;;;16.17;62.24;99450.66;5084898;27;45476;-66
2022/05/07 00:49:53;;;;;;;;;17.75;17.75;;;;;16.16;62.30;99450.72;5072652;27;45635;-66
2022/05/07 00:52:28;;;;;;;;;18.75;14.50;;;;;16.14;61.95;99450.81;5092601;27;45630;-66
2022/05/07 00:54:53;;;;;;;;;16.50;16.00;;;;;16.12;61.95;99447.38;5079978;27;45377;-66
2022/05/07 00:57:19;;;;;;;;;9.25;7.00;;;;;16.13;61.70;99449.09;5084738;27;45629;-66
2022/05/07 00:59:45;;;;;;;;;16.50;14.50;;;;;16.16;61.92;99456.06;5088069;27;45519;-66
2022/05/07 01:02:19;;;;;;;;;19.25;18.75;;;;;16.15;62.27;99452.53;5095500;27;45422;-66
2022/05/07 01:04:45;;;;;;;;;20.00;20.00;;;;;16.14;62.13;99453.47;5090285;27;45539;-66
2022/05/07 01:07:10;;;;;;;;;18.75;16.00;;;;;16.13;61.83;99450.91;5092473;27;45786;-66
2022/05/07 01:09:36;;;;;;;;;22.00;19.25;;;;;16.14;62.33;99445.50;5078434;27;45408;-66
2022/05/07 01:12:11;;;;;;;;;15.25;14.25;;;;;16.13;62.19;99445.59;5093898;27;46426;-66
2022/05/07 01:14:36;;;;;;;;;17.50;16.75;;;;;16.10;62.35;99448.41;5089949;27;45522;-66
2022/05/07 01:17:06;;;;;;;;;17.75;14.75;;;;;16.05;62.48;99444.25;5080039;27;45450;-66
2022/05/07 01:19:31;;;;;;;;;19.00;17.00;;;;;16.02;62.44;99447.06;5092177;27;45432;-66
2022/05/07 01:21:57;;;;;;;;;15.25;14.50;;;;;16.00;62.59;99448.09;5077687;27;47980;-66
2022/05/07 01:24:22;;;;;;;;;16.75;16.25;;;;;15.98;62.27;99442.00;5096604;27;45472;-65
2022/05/07 01:26:47;;;;;;;;;18.50;18.25;;;;;16.00;62.75;99440.97;5095604;27;45646;-66
2022/05/07 01:29:13;;;;;;;;;20.25;14.25;;;;;16.02;62.51;99444.41;5070511;27;45415;-66
2022/05/07 01:31:47;;;;;;;;;17.50;16.75;;;;;16.04;62.14;99439.88;5092867;27;46063;-66
2022/05/07 01:34:13;;;;;;;;;21.25;19.75;;;;;16.07;62.13;99441.50;5091302;27;45519;-65
2022/05/07 01:36:47;;;;;;;;;19.75;18.00;;;;;16.10;62.56;99437.78;5088522;27;45392;-65
2022/05/07 01:39:13;;;;;;;;;18.00;16.75;;;;;16.10;62.73;99440.44;5087487;27;45379;-66
2022/05/07 01:41:38;;;;;;;;;16.75;15.75;;;;;16.10;62.43;99443.94;5087141;27;46043;-65
2022/05/07 01:44:04;;;;;;;;;15.75;13.25;;;;;16.11;62.61;99429.72;5092744;27;45661;-65
2022/05/07 01:49:13;;;;;;;;;19.00;16.50;;;;;16.11;62.17;99429.72;5078976;27;45408;-65
2022/05/07 01:51:38;;;;;;;;;13.75;13.50;;;;;16.10;62.33;99427.13;5083525;27;45450;-65
2022/05/07 01:54:04;;;;;;;;;14.25;14.25;;;;;16.09;62.58;99428.94;5096334;27;45459;-65
2022/05/07 01:56:30;;;;;;;;;20.50;18.00;;;;;16.11;62.58;99434.16;5093395;27;45502;-65
2022/05/07 01:58:55;;;;;;;;;15.00;12.50;;;;;16.11;62.53;99434.16;5084757;27;45430;-66
2022/05/07 02:01:21;;;;;;;;;15.50;15.25;;;;;16.08;62.72;99429.91;5093715;27;45953;-65
2022/05/07 02:03:47;;;;;;;;;18.25;17.00;;;;;16.08;62.58;99435.22;5081973;27;45375;-65
2022/05/07 02:06:12;;;;;;;;;18.25;16.50;;;;;16.08;62.97;99429.91;5086506;27;45371;-65
2022/05/07 02:08:38;;;;;;;;;18.75;15.50;;;;;16.08;63.17;99429.06;5082502;27;45491;-66
2022/05/07 02:11:12;;;;;;;;;17.00;15.25;;;;;16.06;62.94;99431.81;5085901;27;45454;-66
2022/05/07 02:13:37;;;;;;;;;17.00;16.25;;;;;16.00;62.97;99433.00;5079819;27;45374;-66
2022/05/07 02:16:03;;;;;;;;;14.75;13.50;;;;;15.95;63.25;99434.19;5086507;27;45407;-65
2022/05/07 02:18:28;;;;;;;;;15.00;14.50;;;;;15.90;63.37;99428.31;5095695;27;45435;-66
2022/05/07 02:20:56;;;;;;;;;20.00;18.25;;;;;15.86;63.90;99424.94;5093134;27;45338;-66
2022/05/07 02:23:21;;;;;;;;;19.75;18.75;;;;;15.84;64.52;99428.63;5093566;27;45548;-67
2022/05/07 02:25:47;;;;;;;;;16.25;15.00;;;;;15.81;64.76;99429.66;5091685;27;45475;-66
2022/05/07 02:28:12;;;;;;;;;17.00;17.00;;;;;15.79;64.98;99426.22;5089929;27;45573;-66
2022/05/07 02:30:38;;;;;;;;;18.00;18.00;;;;;15.75;65.46;99431.84;5082041;27;45777;-66
2022/05/07 02:33:03;;;;;;;;;19.75;18.50;;;;;15.70;65.74;99440.91;5091940;27;45429;-67
2022/05/07 02:35:28;;;;;;;;;18.25;14.75;;;;;15.66;66.41;99436.69;5093292;27;45362;-66
2022/05/07 02:37:54;;;;;;;;;16.75;14.50;;;;;15.62;66.34;99436.94;5091569;27;45442;-67
2022/05/07 02:40:20;;;;;;;;;19.75;17.00;;;;;15.59;66.86;99435.31;5076898;27;46066;-66
2022/05/07 02:42:54;;;;;;;;;17.75;17.75;;;;;15.55;66.69;99428.47;5090596;27;45397;-66
2022/05/07 02:45:20;;;;;;;;;19.50;19.00;;;;;15.51;67.38;99437.53;5085168;27;45388;-66
2022/05/07 02:47:45;;;;;;;;;18.50;18.50;;;;;15.44;67.79;99432.63;5093866;27;45263;-66
2022/05/07 02:50:12;;;;;;;;;20.50;20.50;;;;;15.35;68.15;99441.97;5096477;27;45510;-66
2022/05/07 02:52:47;;;;;;;;;20.00;18.25;;;;;15.31;68.25;99440.41;5092743;27;45379;-66
2022/05/07 02:55:13;;;;;;;;;19.75;18.50;;;;;15.28;68.64;99441.41;5096902;27;45477;-66
2022/05/07 02:57:38;;;;;;;;;21.25;18.75;;;;;15.19;68.46;99444.59;5079516;27;45380;-66
2022/05/07 03:00:05;;;;;;;;;21.00;20.00;;;;;15.15;68.33;99445.69;5098483;27;46010;-66
2022/05/07 03:02:31;;;;;;;;;19.00;18.00;;;;;15.14;68.49;99437.78;5091424;27;45371;-66
2022/05/07 03:04:57;;;;;;;;;18.00;17.50;;;;;15.16;68.62;99436.78;5093499;27;45488;-66
2022/05/07 03:07:22;;;;;;;;;19.75;19.75;;;;;15.19;68.69;99438.41;5097475;27;45395;-66
2022/05/07 03:09:47;;;;;;;;;22.75;20.75;;;;;15.20;68.73;99435.69;5098920;27;46356;-66
2022/05/07 03:12:22;;;;;;;;;20.25;18.25;;;;;15.21;68.80;99425.91;5091064;27;45485;-66
2022/05/07 03:14:47;;;;;;;;;21.00;17.75;;;;;15.22;68.62;99430.28;5078027;27;45558;-66
2022/05/07 03:17:13;;;;;;;;;20.25;18.00;;;;;15.16;69.10;99441.22;5091134;27;45490;-66
2022/05/07 03:19:47;;;;;;;;;19.75;17.00;;;;;15.07;68.98;99429.31;5077952;28;45404;-66
2022/05/07 03:22:13;;;;;;;;;14.50;14.50;;;;;15.06;69.33;99430.25;5092615;27;45564;-66
2022/05/07 03:24:40;;;;;;;;;21.00;19.00;;;;;15.07;69.29;99434.63;5083037;27;45358;-66
2022/05/07 03:27:06;;;;;;;;;16.75;14.75;;;;;15.05;67.90;99427.69;5090775;27;45454;-66
2022/05/07 03:29:31;;;;;;;;;20.25;17.50;;;;;15.06;67.89;99426.75;5097158;27;45443;-66
2022/05/07 03:32:06;;;;;;;;;17.75;16.75;;;;;15.05;67.74;99431.19;5078380;28;45387;-66
2022/05/07 03:34:32;;;;;;;;;14.00;13.50;;;;;15.07;67.60;99425.81;5059669;28;45444;-66
2022/05/07 03:36:57;;;;;;;;;18.50;18.00;;;;;15.10;68.43;99429.13;5087502;27;45283;-66
2022/05/07 03:39:23;;;;;;;;;21.00;18.75;;;;;15.10;68.50;99430.94;5081720;27;46310;-66
2022/05/07 03:41:58;;;;;;;;;19.50;19.50;;;;;15.09;68.91;99435.38;5089626;27;45578;-66
2022/05/07 03:44:23;;;;;;;;;16.75;16.00;;;;;15.10;68.60;99438.91;5098826;27;45531;-67
2022/05/07 03:46:49;;;;;;;;;18.75;17.75;;;;;15.08;68.57;99432.84;5069361;28;45450;-66
2022/05/07 03:49:15;;;;;;;;;15.50;15.50;;;;;15.04;68.18;99436.59;5082809;27;46003;-66
2022/05/07 03:54:25;;;;;;;;;15.50;12.25;;;;;14.99;68.56;99435.03;5077871;27;45417;-66
2022/05/07 03:56:50;;;;;;;;;19.00;18.00;;;;;15.01;68.84;99426.97;5090587;27;45583;-66
2022/05/07 03:59:15;;;;;;;;;20.25;17.25;;;;;15.04;69.24;99433.94;5078380;27;45726;-66
2022/05/07 04:01:41;;;;;;;;;20.00;18.25;;;;;15.06;69.57;99435.56;5086934;27;45510;-66
2022/05/07 04:04:06;;;;;;;;;16.75;16.75;;;;;15.08;69.64;99433.66;5077882;27;45264;-67
2022/05/07 04:06:32;;;;;;;;;17.25;17.25;;;;;15.09;70.05;99432.72;5081238;27;45500;-67
2022/05/07 04:08:57;;;;;;;;;24.25;22.50;;;;;15.12;70.57;99434.38;5090094;27;45437;-66
2022/05/07 04:11:22;;;;;;;;;21.25;19.75;;;;;15.11;70.59;99444.13;5088866;27;45475;-66
2022/05/07 04:13:48;;;;;;;;;16.00;16.00;;;;;15.10;70.63;99441.56;5086768;27;45446;-66
2022/05/07 04:16:13;;;;;;;;;19.75;18.25;;;;;15.10;70.74;99438.91;5089583;27;45413;-66
2022/05/07 04:18:39;;;;;;;;;20.75;17.00;;;;;15.11;70.74;99443.28;5078253;27;46248;-66
2022/05/07 04:21:04;;;;;;;;;20.75;20.25;;;;;15.11;70.66;99441.47;5083183;27;45389;-67
2022/05/07 04:23:38;;;;;;;;;20.00;18.50;;;;;15.11;70.81;99432.66;5092109;27;45908;-67
2022/05/07 04:26:04;;;;;;;;;20.50;17.00;;;;;15.07;71.18;99439.09;5083486;27;45549;-67
2022/05/07 04:28:29;;;;;;;;;19.25;17.00;;;;;15.06;71.17;99446.19;5088391;27;45715;-67
2022/05/07 04:30:55;;;;;;;;;26.00;24.25;;;;;15.08;71.19;99446.13;5082206;27;45357;-66
2022/05/07 04:33:21;;;;;;;;;21.50;18.50;;;;;15.10;71.43;99447.72;5087530;27;45341;-66
2022/05/07 04:35:48;;;;;;;;;20.75;19.00;;;;;15.12;71.11;99448.50;5081275;27;45427;-66
2022/05/07 04:38:14;;;;;;;;;20.75;19.00;;;;;15.13;70.70;99446.69;5069343;28;46835;-66
2022/05/07 04:40:39;;;;;;;;;19.75;19.75;;;;;15.16;70.60;99444.75;5069622;28;45360;-66
2022/05/07 04:43:17;;;;;;;;;22.00;19.25;;;;;15.19;70.19;99441.94;5069871;27;45420;-66
2022/05/07 04:45:43;;;;;;;;;17.00;13.75;;;;;15.19;70.75;99454.34;5056995;28;45435;-66
2022/05/07 04:48:08;;;;;;;;;16.00;15.75;;;;;15.14;71.13;99449.28;5062441;28;45375;-66
2022/05/07 04:50:34;;;;;;;;;19.25;19.25;;;;;15.13;71.53;99458.19;5062670;28;45415;-66
2022/05/07 04:52:59;;;;;;;;;19.25;18.00;;;;;15.14;71.52;99462.56;5071531;28;45976;-66
2022/05/07 04:55:25;;;;;;;;;17.75;17.25;;;;;15.08;71.48;99464.69;5063214;28;45445;-66
2022/05/07 04:57:50;;;;;;;;;19.00;18.00;;;;;15.04;71.87;99468.44;5071497;27;45566;-68
2022/05/07 05:00:16;;;;;;;;;22.50;21.00;;;;;15.04;71.55;99465.78;5076935;28;45434;-66
2022/05/07 05:02:42;;;;;;;;;15.00;15.00;;;;;15.03;71.68;99464.94;5071196;28;45233;-66
2022/05/07 05:05:07;;;;;;;;;21.50;20.50;;;;;15.07;71.53;99468.28;5043862;28;45460;-66
2022/05/07 05:07:33;;;;;;;;;16.50;15.75;;;;;15.07;71.85;99468.28;5068413;28;46167;-66
2022/05/07 05:09:59;;;;;;;;;20.00;18.75;;;;;15.04;71.51;99473.75;5062565;28;45374;-66
2022/05/07 05:12:24;;;;;;;;;20.00;17.50;;;;;15.03;71.06;99470.25;5073086;28;45460;-66
2022/05/07 05:15:01;;;;;;;;;22.75;19.00;;;;;15.06;71.22;99466.56;5075809;27;45468;-66
2022/05/07 05:17:27;;;;;;;;;17.75;17.50;;;;;15.10;71.15;99470.75;5073319;28;45615;-66
2022/05/07 05:19:53;;;;;;;;;18.50;18.25;;;;;15.13;71.29;99476.78;5042503;28;45840;-66
2022/05/07 05:22:18;;;;;;;;;18.75;17.50;;;;;15.17;71.24;99482.78;5064175;28;45648;-66
2022/05/07 05:24:44;;;;;;;;;20.50;18.00;;;;;15.20;71.48;99474.66;5067513;28;45530;-66
2022/05/07 05:27:10;;;;;;;;;16.50;15.75;;;;;15.21;71.79;99485.22;5069084;28;46846;-66
2022/05/07 05:29:35;;;;;;;;;20.25;20.25;;;;;15.23;71.64;99487.78;5072192;28;45471;-66
2022/05/07 05:32:01;;;;;;;;;20.50;19.50;;;;;15.23;71.69;99478.03;5060684;28;45333;-66
2022/05/07 05:34:26;;;;;;;;;23.00;18.25;;;;;15.25;71.67;99484.09;5065156;28;45285;-66
2022/05/07 05:36:52;;;;;;;;;20.00;18.50;;;;;15.25;71.35;99486.75;5070818;27;46203;-66
2022/05/07 05:39:18;;;;;;;;;21.00;19.25;;;;;15.27;71.29;99479.56;5078013;27;45397;-66
2022/05/07 05:41:44;;;;;;;;;17.75;17.75;;;;;15.28;70.67;99489.25;5088238;27;45364;-67
2022/05/07 05:44:10;;;;;;;;;20.25;17.50;;;;;15.31;70.59;99491.75;5092360;27;45564;-66
2022/05/07 05:46:36;;;;;;;;;21.00;17.75;;;;;15.35;70.61;99489.78;5064541;28;46446;-67
2022/05/07 05:49:02;;;;;;;;;22.00;21.00;;;;;15.39;69.91;99482.50;5091506;27;45538;-66
2022/05/07 05:51:36;;;;;;;;;22.75;20.00;;;;;15.46;69.28;99492.72;5095283;27;45438;-67
2022/05/07 05:54:02;;;;;;;;;18.25;17.00;;;;;15.50;68.60;99485.44;5092649;27;45360;-66
2022/05/07 05:56:27;;;;;;;;;19.25;18.25;;;;;15.53;68.22;99485.28;5087912;27;45475;-67
2022/05/07 05:58:54;;;;;;;;;20.25;19.25;;;;;15.57;68.50;99485.06;5091829;27;45409;-66
2022/05/07 06:01:20;;;;;;;;;18.25;17.00;;;;;15.61;69.00;99480.41;5083911;27;45490;-66
2022/05/07 06:03:45;;;;;;;;;19.25;16.50;;;;;15.66;68.78;99492.53;5095369;27;45391;-66
2022/05/07 06:06:11;;;;;;;;;20.75;20.00;;;;;15.73;69.15;99489.53;5084168;27;45499;-66
2022/05/07 06:08:36;;;;;;;;;16.50;16.50;;;;;15.79;68.60;99483.84;5080940;27;45520;-66
2022/05/07 06:11:02;;;;;;;;;23.00;19.50;;;;;15.83;68.73;99491.59;5075526;27;45435;-67
2022/05/07 06:13:27;;;;;;;;;20.25;19.25;;;;;15.86;68.39;99493.22;5084176;27;45483;-67
2022/05/07 06:15:53;;;;;;;;;18.50;18.50;;;;;15.90;68.29;99497.44;5084349;27;46201;-67
2022/05/07 06:18:22;;;;;;;;;19.50;19.50;;;;;15.97;67.67;99498.78;5088779;27;45484;-67
2022/05/07 06:20:49;;;;;;;;;18.75;15.25;;;;;16.03;67.78;99488.69;5075733;27;45368;-66
2022/05/07 06:23:23;;;;;;;;;20.50;19.75;;;;;16.12;67.45;99476.63;5091529;27;45391;-66
2022/05/07 06:28:33;;;;;;;;;19.25;18.25;;;;;16.31;67.24;99489.75;5074711;27;45397;-66
2022/05/07 06:30:59;;;;;;;;;19.00;18.75;;;;;16.36;67.02;99483.22;5068508;27;45526;-67
2022/05/07 06:33:25;;;;;;;;;22.00;18.75;;;;;16.46;66.93;99485.34;5083491;27;45582;-66
2022/05/07 06:35:50;;;;;;;;;19.25;16.75;;;;;16.53;66.84;99495.56;5065999;27;46333;-66
2022/05/07 06:38:16;;;;;;;;;20.00;17.75;;;;;16.61;66.53;99489.75;5065214;27;45327;-66
2022/05/07 06:40:42;;;;;;;;;18.25;16.75;;;;;16.67;66.13;99495.63;5073253;27;45550;-66
2022/05/07 06:43:16;;;;;;;;;19.50;18.25;;;;;16.73;65.84;99497.09;5093242;27;45482;-66
2022/05/07 06:45:42;;;;;;;;;20.25;18.25;;;;;16.81;65.97;99501.94;5087295;27;45511;-66
2022/05/07 06:48:11;;;;;;;;;18.25;18.25;;;;;16.86;65.63;99503.38;5094901;27;45308;-66
2022/05/07 06:50:38;;;;;;;;;17.00;15.75;;;;;16.90;65.60;99496.94;5077851;27;45477;-66
2022/05/07 06:53:03;;;;;;;;;21.25;21.25;;;;;16.96;65.45;99507.19;5094391;27;45497;-66
2022/05/07 06:55:31;;;;;;;;;19.50;17.00;;;;;16.99;65.04;99499.03;5093296;27;46592;-67
2022/05/07 06:57:58;;;;;;;;;19.50;18.25;;;;;17.01;65.13;99501.59;5076364;27;45424;-67
2022/05/07 07:00:24;;;;;;;;;16.25;16.00;;;;;17.02;64.88;99493.53;5078387;27;45543;-67
2022/05/07 07:02:50;;;;;;;;;20.50;19.00;;;;;17.04;64.85;99499.63;5089623;27;45422;-67
2022/05/07 07:05:15;;;;;;;;;19.75;15.25;;;;;17.05;64.97;99493.34;5090765;27;45670;-67
2022/05/07 07:07:41;;;;;;;;;16.25;14.00;;;;;17.10;64.70;99498.38;5088524;27;45462;-67
2022/05/07 07:10:07;;;;;;;;;21.50;19.00;;;;;17.14;64.74;99501.72;5094050;27;45493;-67
2022/05/07 07:12:41;;;;;;;;;16.50;14.25;;;;;17.17;64.73;99494.41;5090708;27;45383;-66
2022/05/07 07:15:10;;;;;;;;;20.75;18.50;;;;;17.22;64.39;99492.31;5086006;27;45593;-67
2022/05/07 07:17:36;;;;;;;;;22.00;19.00;;;;;17.28;64.61;99489.25;5088877;27;45522;-66
2022/05/07 07:20:01;;;;;;;;;8.50;8.25;;;;;17.35;64.42;99492.41;5084764;27;45487;-66
2022/05/07 07:22:26;;;;;;;;;18.25;16.75;;;;;17.34;63.94;99494.22;5088040;27;45391;-66
2022/05/07 07:24:52;;;;;;;;;18.75;18.00;;;;;17.36;63.95;99489.66;5090969;27;45867;-66
2022/05/07 07:27:17;;;;;;;;;16.75;16.75;;;;;17.41;63.70;99494.72;5089653;27;45416;-66
2022/05/07 07:29:47;;;;;;;;;16.00;15.25;;;;;17.45;64.13;99489.06;5074713;28;45211;-64
2022/05/07 07:32:13;;;;;;;;;16.75;16.75;;;;;17.53;63.96;99491.28;5085039;27;45436;-76
2022/05/07 07:34:38;;;;;;;;;20.50;18.50;;;;;17.60;63.40;99489.06;5086070;27;46047;-68
2022/05/07 07:37:04;;;;;;;;;19.50;19.50;;;;;17.67;63.49;99485.09;5096896;27;45360;-68
2022/05/07 07:39:31;;;;;;;;;21.00;18.50;;;;;17.71;63.22;99481.28;5093109;27;45395;-69
2022/05/07 07:41:58;;;;;;;;;23.00;18.50;;;;;17.78;62.90;99477.25;5091624;27;45351;-62
2022/05/07 07:44:23;;;;;;;;;22.75;20.75;;;;;17.81;62.95;99484.22;5086432;27;46541;-62
2022/05/07 07:49:33;;;;;;;;;22.00;20.50;;;;;17.91;62.38;99480.88;5078832;27;45367;-66
2022/05/07 07:51:58;;;;;;;;;19.50;18.25;;;;;17.94;62.22;99479.81;5097415;27;45543;-62
2022/05/07 07:54:23;;;;;;;;;15.50;15.50;;;;;18.00;61.96;99484.75;5113311;27;48266;-62
2022/05/07 07:56:49;;;;;;;;;14.25;14.25;;;;;18.05;61.66;99488.84;5074653;27;45318;-64
2022/05/07 07:59:14;;;;;;;;;21.75;21.25;;;;;18.11;61.51;99484.91;5083312;27;45761;-62
2022/05/07 08:01:40;;;;;;;;;21.25;17.50;;;;;18.19;61.46;99490.59;5088602;27;45384;-61
2022/05/07 08:04:06;;;;;;;;;16.50;15.25;;;;;18.24;61.28;99485.84;5082436;27;45483;-63
2022/05/07 08:06:32;;;;;;;;;19.00;16.50;;;;;18.30;61.08;99488.06;5095836;27;45427;-62
2022/05/07 08:11:44;;;;;;;;;17.25;17.00;;;;;18.33;61.30;99490.56;5084384;27;45554;-62
2022/05/07 08:14:13;;;;;;;;;19.50;18.75;;;;;18.40;60.66;99491.03;5091612;27;45518;-62
2022/05/07 08:16:39;;;;;;;;;21.50;21.50;;;;;18.44;61.07;99488.03;5095801;27;45455;-62
2022/05/07 08:19:06;;;;;;;;;19.50;16.50;;;;;18.53;60.68;99488.38;5096527;27;45554;-62
2022/05/07 08:21:32;;;;;;;;;18.50;16.50;;;;;18.65;59.83;99491.09;5095314;27;45443;-62
2022/05/07 08:23:57;;;;;;;;;16.50;16.50;;;;;18.77;59.87;99484.06;5068414;28;47467;-62
2022/05/07 08:26:32;;;;;;;;;19.50;17.50;;;;;18.89;59.75;99491.28;5079901;27;45402;-61
2022/05/07 08:28:57;;;;;;;;;18.00;16.25;;;;;18.97;59.37;99482.72;5077235;27;45492;-62
2022/05/07 08:31:23;;;;;;;;;17.75;17.75;;;;;19.02;59.23;99486.78;5080282;27;45532;-62
2022/05/07 08:33:50;;;;;;;;;21.50;21.00;;;;;19.09;59.09;99488.09;5076641;27;46459;-62
2022/05/07 08:36:16;;;;;;;;;8.75;8.75;;;;;19.17;58.81;99487.53;5081901;27;45513;-62
2022/05/07 08:38:42;;;;;;;;;13.75;13.75;;;;;19.21;59.02;99483.72;5086354;27;45423;-61
2022/05/07 08:41:13;;;;;;;;;17.75;16.00;;;;;19.27;58.94;99485.94;5081222;27;45504;-64
2022/05/07 08:43:41;;;;;;;;;16.50;14.50;;;;;19.36;58.54;99489.78;5095836;27;46334;-64
2022/05/07 08:46:18;;;;;;;;;19.25;19.25;;;;;19.40;58.08;99497.50;5093748;27;45972;-64
2022/05/07 08:48:50;;;;;;;;;20.00;18.75;;;;;19.46;57.97;99491.69;5084847;27;45534;-64
2022/05/07 08:51:18;;;;;;;;;20.00;19.00;;;;;19.47;58.09;99489.88;5082141;27;45318;-64
2022/05/07 08:53:45;;;;;;;;;23.50;17.75;;;;;19.49;57.69;99483.50;5095011;27;46407;-65
2022/05/07 08:56:11;;;;;;;;;19.00;17.25;;;;;19.52;57.53;99498.47;5095512;27;45381;-64
2022/05/07 08:58:37;;;;;;;;;24.00;22.00;;;;;19.56;57.69;99493.78;5090980;27;45447;-61
2022/05/07 09:01:03;;;;;;;;;23.00;20.00;;;;;19.57;57.52;99485.66;5081094;27;45808;-61
2022/05/07 09:03:44;;;;;;;;;22.50;21.50;;;;;19.59;57.36;99486.41;5071515;27;46614;-65
2022/05/07 09:06:15;;;;;;;;;18.50;18.50;;;;;19.63;57.19;99490.53;5086065;27;45355;-62
2022/05/07 09:08:41;;;;;;;;;19.25;19.25;;;;;19.68;57.25;99484.88;5078918;27;45447;-62
2022/05/07 09:11:06;;;;;;;;;20.25;19.00;;;;;19.74;56.92;99479.94;5087023;27;45561;-62
2022/05/07 09:13:35;;;;;;;;;34.00;28.50;;;;;19.79;56.75;99482.25;5094806;27;46260;-62
2022/05/07 09:16:01;;;;;;;;;25.00;24.00;;;;;19.82;56.70;99480.22;5092436;27;45431;-62
2022/05/07 09:18:28;;;;;;;;;25.00;24.00;;;;;19.84;57.13;99480.13;5087121;27;45387;-62
2022/05/07 09:23:55;;;;;;;;;29.00;25.25;;;;;19.92;56.72;99474.22;5065663;28;46448;-61
2022/05/07 09:26:32;;;;;;;;;21.25;18.25;;;;;19.94;56.61;99473.13;5085091;27;45610;-61
2022/05/07 09:29:00;;;;;;;;;25.50;23.25;;;;;19.94;56.29;99472.31;5085362;27;45439;-61
2022/05/07 09:31:31;;;;;;;;;17.50;17.00;;;;;19.95;56.59;99468.63;5084101;27;45485;-66
2022/05/07 09:37:16;;;;;;;;;16.75;16.75;;;;;19.99;55.79;99470.13;5085994;27;45399;-66
2022/05/07 09:39:47;;;;;;;;;17.25;17.25;;;;;20.04;55.90;99467.97;5075595;28;45353;-72
2022/05/07 09:42:24;;;;;;;;;16.00;16.00;;;;;20.06;55.26;99464.22;5092757;27;45475;-72
2022/05/07 09:44:49;;;;;;;;;19.50;15.00;;;;;20.06;54.86;99466.03;5095207;27;45486;-72
2022/05/07 09:47:15;;;;;;;;;16.00;14.75;;;;;20.09;54.51;99463.16;5092886;27;45443;-72
2022/05/07 09:57:30;;;;;;;;;18.50;17.00;;;;;20.19;54.22;99459.66;5087485;27;45490;-72
2022/05/07 09:58:12;;;;;;;;;21.00;18.00;;;;;20.29;53.96;99458.97;5087605;27;45488;-72
2022/05/07 10:00:53;;;;;;;;;18.50;17.50;;;;;20.36;53.64;99452.19;5074502;27;45383;-73
2022/05/07 10:03:31;;;;;;;;;14.50;14.00;;;;;20.43;54.01;99453.50;5084208;27;45535;-72
2022/05/07 10:06:34;;;;;;;;;16.00;15.00;;;;;20.60;53.53;99447.72;5095058;27;45518;-73
2022/05/07 10:09:32;;;;;;;;;19.75;15.00;;;;;20.71;53.47;99447.72;5027054;28;45576;-72
2022/05/07 10:11:58;;;;;;;;;18.50;15.50;;;;;20.72;52.54;99454.81;5086679;27;45473;-61
2022/05/07 10:14:30;;;;;;;;;14.00;12.00;;;;;20.56;51.23;99448.91;5095293;27;45540;-61
2022/05/07 10:17:15;;;;;;;;;14.00;14.00;;;;;20.29;52.05;99445.56;5083927;27;46197;-61
2022/05/07 10:19:44;;;;;;;;;14.75;14.00;;;;;20.12;51.66;99441.47;5084153;27;45796;-61
2022/05/07 10:22:24;;;;;;;;;14.00;12.50;;;;;20.06;53.21;99441.94;5074732;27;45414;-61
2022/05/07 10:25:06;;;;;;;;;12.00;9.75;;;;;20.06;52.62;99433.91;5079976;27;45297;-61
2022/05/07 10:27:33;;;;;;;;;13.25;13.00;;;;;20.15;52.33;99433.22;5090151;27;46420;-61
2022/05/07 10:30:12;;;;;;;;;18.20;15.00;;;;;20.29;52.80;99435.72;5083844;27;45797;-61
2022/05/07 10:32:58;;;;;;;;;13.75;12.00;;;;;20.37;51.34;99443.22;5087280;27;45417;-60
2022/05/07 10:35:52;;;;;;;;;16.00;13.75;;;;;20.31;51.53;99436.47;5085820;27;45391;-73
2022/05/07 10:38:27;;;;;;;;;14.50;13.50;;;;;20.23;51.79;99430.00;5091731;27;45717;-73
2022/05/07 10:40:53;;;;;;;;;12.40;12.40;;;;;20.11;50.78;99427.22;5093126;27;45409;-73
2022/05/07 10:43:36;;;;;;;;;13.25;13.00;;;;;20.14;51.28;99435.03;5092124;27;45476;-61
2022/05/07 10:46:11;;;;;;;;;13.25;11.00;;;;;20.12;50.62;99428.09;5080800;27;45479;-61
2022/05/07 10:48:43;;;;;;;;;14.00;13.50;;;;;20.08;52.11;99426.63;5090688;27;45564;-61
2022/05/07 10:51:35;;;;;;;;;14.20;13.80;;;;;20.09;51.38;99420.31;5093088;27;45399;-60
2022/05/07 10:54:03;;;;;;;;;17.00;14.50;;;;;20.14;51.23;99423.47;5085893;27;45641;-61
2022/05/07 10:56:31;;;;;;;;;13.25;13.00;;;;;20.25;51.18;99415.53;5089329;27;45490;-60
2022/05/07 10:58:57;;;;;;;;;15.00;15.00;;;;;20.42;51.37;99422.31;5091952;27;45686;-60
2022/05/07 11:01:25;;;;;;;;;17.40;16.00;;;;;20.58;51.02;99422.00;5083704;27;45482;-60
2022/05/07 11:04:12;;;;;;;;;11.25;10.75;;;;;20.78;51.11;99416.78;5080875;27;45455;-60
2022/05/07 11:06:43;;;;;;;;;17.00;14.75;;;;;20.92;50.03;99412.22;5087585;27;45515;-60
2022/05/07 11:09:20;;;;;;;;;12.00;12.00;;;;;21.04;50.49;99414.78;5089956;27;45496;-60
2022/05/07 11:11:49;;;;;;;;;11.20;10.60;;;;;21.18;50.31;99414.53;5083700;27;45429;-60
2022/05/07 11:14:27;;;;;;;;;14.25;14.25;;;;;21.33;50.29;99408.97;5086876;27;45464;-60
2022/05/07 11:16:55;;;;;;;;;15.50;14.75;;;;;21.45;49.46;99405.34;5091777;27;45628;-60
2022/05/07 11:19:25;;;;;;;;;13.00;13.00;;;;;21.54;49.13;99396.53;5091720;27;45439;-61
2022/05/07 11:21:54;;;;;;;;;16.00;14.00;;;;;21.65;49.23;99388.44;5090048;27;45422;-61
2022/05/07 11:24:20;;;;;;;;;9.50;9.50;;;;;21.79;48.76;99393.53;5091465;27;45305;-60
2022/05/07 11:26:57;;;;;;;;;20.75;17.00;;;;;21.95;49.55;99391.28;5086868;27;45530;-63
2022/05/07 11:29:23;;;;;;;;;15.25;14.00;;;;;22.05;48.67;99380.69;5090679;27;46589;-63
2022/05/07 11:32:06;;;;;;;;;13.80;12.40;;;;;22.11;48.24;99384.72;5094077;27;45450;-63
2022/05/07 11:34:39;;;;;;;;;15.00;13.00;;;;;22.22;48.08;99372.09;5088275;27;45436;-70
2022/05/07 11:37:15;;;;;;;;;13.25;13.25;;;;;22.36;47.71;99373.59;5080924;27;45692;-69
2022/05/07 11:39:48;;;;;;;;;12.75;11.75;;;;;22.48;47.92;99382.44;5098169;27;45364;-69
2022/05/07 11:42:25;;;;;;;;;7.20;6.40;;;;;22.61;47.83;99372.38;5098308;27;45498;-69
2022/05/07 11:47:53;;;;;;;;;12.00;12.00;;;;;22.73;47.38;99373.16;5089412;27;45360;-70
2022/05/07 11:50:24;;;;;;;;;16.00;14.00;;;;;22.73;46.28;99368.63;5088685;27;46138;-69
2022/05/07 11:52:50;;;;;;;;;13.20;13.20;;;;;22.70;47.19;99368.03;5089507;27;45471;-62